Spring Creek, North Carolina
Current Conditions -  °F | °C
As of 6:54 AM on Saturday 01 Nov 2014 (Local Time) from KAVL Reporting Station
Light Snow Light Snow  
Wind Chill: 21°   Ceiling: 2100
Heat Index: 32°   Visibility: 2.5mi
Dew Point: 30°   Wind: 17mph
Humidity: 92%   Direction: 350°N
Pressure: 29.79"   Gusts: 24mph
Location:  35.8037°N, 82.868°W
Report Text: KAVL 011054Z 35015G21KT 2 1/2SM -SN BR FEW005 FEW010 OVC021 00/M01 A2979 RMK AO2 SLP091 P0001 T00001011
Loading
Personal Weather Stations






























Interactive Weather Map
Tropical Storm Tracking
New forecast layout! Learn more

10-Day Weather Forecast

Advertisements
Track Severe Weather on mobile